createdAt,value
2018-10-15T00:01:31.812Z,98311.59
2018-10-15T00:04:00.038Z,98312.58
2018-10-15T00:06:28.335Z,98309.87
2018-10-15T00:08:56.596Z,98318.45
2018-10-15T00:11:24.971Z,98308.00
2018-10-15T00:13:53.098Z,98314.44
2018-10-15T00:16:21.289Z,98314.80
2018-10-15T00:18:49.458Z,98318.17
2018-10-15T00:21:17.643Z,98315.47
2018-10-15T00:23:45.795Z,98312.77
2018-10-15T00:26:14.090Z,98315.47
2018-10-15T00:28:42.239Z,98312.43
2018-10-15T00:31:10.518Z,98311.88
2018-10-15T00:33:38.789Z,98308.15
2018-10-15T00:36:07.021Z,98315.05
2018-10-15T00:38:35.164Z,98307.93
2018-10-15T00:41:03.532Z,98308.45
2018-10-15T00:43:31.692Z,98303.53
2018-10-15T00:46:00.077Z,98300.84
2018-10-15T00:48:28.286Z,98303.69
2018-10-15T00:50:56.425Z,98307.02
2018-10-15T00:53:24.636Z,98299.95
2018-10-15T00:55:52.812Z,98304.94
2018-10-15T00:58:20.952Z,98312.45
2018-10-15T01:00:49.092Z,98305.90
2018-10-15T01:03:17.326Z,98304.50
2018-10-15T01:05:45.639Z,98307.08
2018-10-15T01:08:13.932Z,98309.05
2018-10-15T01:10:42.056Z,98309.99
2018-10-15T01:13:10.189Z,98303.98
2018-10-15T01:15:38.433Z,98305.72
2018-10-15T01:18:06.707Z,98305.41
2018-10-15T01:20:34.935Z,98306.50
2018-10-15T01:23:03.188Z,98315.34
2018-10-15T01:25:31.510Z,98314.02
2018-10-15T01:27:59.691Z,98321.91
2018-10-15T01:30:27.840Z,98318.83
2018-10-15T01:32:56.091Z,98326.30
2018-10-15T01:35:24.224Z,98327.62
2018-10-15T01:37:52.384Z,98325.14
2018-10-15T01:40:20.548Z,98319.05
2018-10-15T01:42:48.774Z,98325.52
2018-10-15T01:45:16.943Z,98322.89
2018-10-15T01:47:45.099Z,98326.73
2018-10-15T01:50:13.472Z,98325.78
2018-10-15T01:52:41.651Z,98329.36
2018-10-15T01:55:09.901Z,98325.26
2018-10-15T01:57:38.200Z,98323.55
2018-10-15T02:00:07.334Z,98326.53
2018-10-15T02:02:35.570Z,98327.98
2018-10-15T02:05:03.769Z,98327.95
2018-10-15T02:07:31.891Z,98335.36
2018-10-15T02:10:00.053Z,98330.30
2018-10-15T02:12:28.285Z,98331.30
2018-10-15T02:14:56.398Z,98329.42
2018-10-15T02:17:24.539Z,98336.30
2018-10-15T02:19:52.735Z,98338.02
2018-10-15T02:22:20.881Z,98335.66
2018-10-15T02:24:49.027Z,98331.25
2018-10-15T02:27:17.313Z,98339.20
2018-10-15T02:29:45.501Z,98337.00
2018-10-15T02:32:13.664Z,98335.56
2018-10-15T02:34:42.176Z,98337.71
2018-10-15T02:37:11.156Z,98333.75
2018-10-15T02:39:39.292Z,98334.93
2018-10-15T02:42:07.466Z,98335.98
2018-10-15T02:44:35.623Z,98336.34
2018-10-15T02:47:03.955Z,98333.94
2018-10-15T02:49:32.091Z,98342.25
2018-10-15T02:52:00.336Z,98338.47
2018-10-15T02:54:28.633Z,98332.25
2018-10-15T02:56:57.125Z,98331.30
2018-10-15T02:59:25.272Z,98326.56
2018-10-15T03:01:53.395Z,98333.22
2018-10-15T03:04:21.647Z,98329.13
2018-10-15T03:06:49.870Z,98331.80
2018-10-15T03:09:18.215Z,98334.13
2018-10-15T03:11:46.507Z,98331.63
2018-10-15T03:14:14.692Z,98336.31
2018-10-15T03:16:42.848Z,98336.08
2018-10-15T03:19:11.039Z,98332.87
2018-10-15T03:21:39.324Z,98343.30
2018-10-15T03:24:07.505Z,98346.42
2018-10-15T03:26:35.721Z,98340.31
2018-10-15T03:29:04.047Z,98342.96
2018-10-15T03:31:32.226Z,98342.20
2018-10-15T03:34:00.404Z,98341.03
2018-10-15T03:36:28.554Z,98346.38
2018-10-15T03:38:56.844Z,98339.98
2018-10-15T03:41:25.056Z,98344.48
2018-10-15T03:43:53.442Z,98345.58
2018-10-15T03:46:21.658Z,98344.40
2018-10-15T03:48:49.895Z,98345.20
2018-10-15T03:51:18.123Z,98343.20
2018-10-15T03:53:46.515Z,98348.27
2018-10-15T03:56:14.752Z,98357.44
2018-10-15T03:58:42.956Z,98353.73
2018-10-15T04:01:11.249Z,98353.98
2018-10-15T04:03:39.423Z,98359.95
2018-10-15T04:06:07.587Z,98357.21
2018-10-15T04:08:36.142Z,98360.06
2018-10-15T04:11:04.276Z,98363.98
2018-10-15T04:13:32.491Z,98363.74
2018-10-15T04:16:00.749Z,98370.55
2018-10-15T04:18:28.883Z,98371.88
2018-10-15T04:20:57.014Z,98372.22
2018-10-15T04:23:25.219Z,98366.97
2018-10-15T04:25:53.395Z,98371.27
2018-10-15T04:28:21.632Z,98366.72
2018-10-15T04:30:49.789Z,98370.17
2018-10-15T04:33:17.931Z,98377.69
2018-10-15T04:35:46.078Z,98371.35
2018-10-15T04:38:14.323Z,98371.36
2018-10-15T04:40:42.712Z,98371.98
2018-10-15T04:43:10.925Z,98367.94
2018-10-15T04:45:39.184Z,98373.06
2018-10-15T04:48:07.547Z,98368.86
2018-10-15T04:50:35.667Z,98374.36
2018-10-15T04:53:03.919Z,98378.43
2018-10-15T04:55:32.116Z,98376.01
2018-10-15T04:58:00.431Z,98376.51
2018-10-15T05:00:28.685Z,98381.03
2018-10-15T05:02:56.707Z,98385.90
2018-10-15T05:05:24.993Z,98395.91
2018-10-15T05:07:53.203Z,98392.81
2018-10-15T05:10:21.396Z,98398.05
2018-10-15T05:12:49.523Z,98392.45
2018-10-15T05:15:17.675Z,98403.05
2018-10-15T05:17:45.847Z,98411.53
2018-10-15T05:20:14.063Z,98409.75
2018-10-15T05:22:42.276Z,98419.27
2018-10-15T05:25:10.516Z,98423.79
2018-10-15T05:27:38.668Z,98424.47
2018-10-15T05:30:07.727Z,98419.83
2018-10-15T05:32:35.999Z,98427.59
2018-10-15T05:35:05.063Z,98429.48
2018-10-15T05:37:33.268Z,98435.64
2018-10-15T05:40:01.423Z,98433.60
2018-10-15T05:42:29.657Z,98430.78
2018-10-15T05:44:57.841Z,98427.20
2018-10-15T05:47:25.983Z,98431.52
2018-10-15T05:49:54.140Z,98430.31
2018-10-15T05:52:22.308Z,98431.40
2018-10-15T05:54:50.564Z,98441.29
2018-10-15T05:57:19.339Z,98439.38
2018-10-15T05:59:47.532Z,98446.39
2018-10-15T06:02:15.676Z,98453.52
2018-10-15T06:04:43.864Z,98461.13
2018-10-15T06:07:12.083Z,98454.00
2018-10-15T06:09:40.291Z,98459.84
2018-10-15T06:12:08.621Z,98461.27
2018-10-15T06:14:36.767Z,98463.19
2018-10-15T06:17:05.155Z,98462.71
2018-10-15T06:19:33.304Z,98456.75
2018-10-15T06:22:01.573Z,98455.57
2018-10-15T06:24:29.848Z,98457.73
2018-10-15T06:26:58.097Z,98450.71
2018-10-15T06:29:26.225Z,98465.03
2018-10-15T06:31:54.476Z,98460.13
2018-10-15T06:34:22.885Z,98467.15
2018-10-15T06:36:51.297Z,98465.50
2018-10-15T06:39:19.558Z,98468.13
2018-10-15T06:41:47.587Z,98470.73
2018-10-15T06:44:15.828Z,98467.52
2018-10-15T06:46:43.948Z,98469.29
2018-10-15T06:49:12.125Z,98466.66
2018-10-15T06:51:40.311Z,98472.47
2018-10-15T06:54:08.497Z,98472.70
2018-10-15T06:56:36.711Z,98481.12
2018-10-15T06:59:04.899Z,98470.94
2018-10-15T07:01:33.126Z,98478.06
2018-10-15T07:04:01.315Z,98481.00
2018-10-15T07:06:29.743Z,98476.31
2018-10-15T07:09:07.571Z,98474.97
2018-10-15T07:11:35.642Z,98476.14
2018-10-15T07:14:04.040Z,98478.27
2018-10-15T07:16:32.104Z,98482.23
2018-10-15T07:19:00.567Z,98482.83
2018-10-15T07:21:28.796Z,98488.58
2018-10-15T07:23:57.027Z,98488.88
2018-10-15T07:26:25.219Z,98489.63
2018-10-15T07:28:53.653Z,98488.72
2018-10-15T07:31:21.841Z,98486.91
2018-10-15T07:33:50.124Z,98496.03
2018-10-15T07:36:18.338Z,98491.03
2018-10-15T07:38:46.472Z,98491.24
2018-10-15T07:41:14.855Z,98498.38
2018-10-15T07:43:43.040Z,98492.45
2018-10-15T07:46:11.237Z,98495.23
2018-10-15T07:48:39.606Z,98493.66
2018-10-15T07:51:07.748Z,98500.20
2018-10-15T07:53:35.947Z,98501.19
2018-10-15T07:56:04.175Z,98506.82
2018-10-15T07:58:32.294Z,98510.81
2018-10-15T08:01:00.458Z,98504.70
2018-10-15T08:03:28.580Z,98507.45
2018-10-15T08:05:56.731Z,98509.86
2018-10-15T08:08:25.010Z,98502.50
2018-10-15T08:10:53.088Z,98505.11
2018-10-15T08:13:21.256Z,98497.13
2018-10-15T08:15:49.439Z,98499.46
2018-10-15T08:18:17.564Z,98494.14
2018-10-15T08:20:45.830Z,98498.70
2018-10-15T08:23:13.894Z,98497.59
2018-10-15T08:25:42.094Z,98496.41
2018-10-15T08:28:10.353Z,98498.41
2018-10-15T08:30:38.451Z,98494.89
2018-10-15T08:33:06.757Z,98497.86
2018-10-15T08:35:35.224Z,98490.40
2018-10-15T08:38:03.651Z,98491.34
2018-10-15T08:40:32.264Z,98492.36
2018-10-15T08:43:00.755Z,98495.09
2018-10-15T08:45:29.015Z,98494.17
2018-10-15T08:47:57.195Z,98489.88
2018-10-15T08:50:26.067Z,98488.10
2018-10-15T08:52:54.229Z,98493.52
2018-10-15T08:55:22.376Z,98487.43
2018-10-15T08:57:50.918Z,98493.77
2018-10-15T09:00:20.969Z,98487.04
2018-10-15T09:02:49.546Z,98496.21
2018-10-15T09:05:18.047Z,98496.08
2018-10-15T09:07:47.094Z,98499.56
2018-10-15T09:10:16.250Z,98501.40
2018-10-15T09:12:44.684Z,98498.25
2018-10-15T09:15:16.265Z,98494.09
2018-10-15T09:17:44.470Z,98495.91
2018-10-15T09:20:12.599Z,98496.09
2018-10-15T09:22:41.992Z,98499.55
2018-10-15T09:25:12.197Z,98498.57
2018-10-15T09:27:40.456Z,98498.70
2018-10-15T09:30:10.660Z,98495.06
2018-10-15T09:32:39.238Z,98499.70
2018-10-15T09:35:08.216Z,98487.51
2018-10-15T09:37:36.551Z,98491.45
2018-10-15T09:40:05.025Z,98490.71
2018-10-15T09:42:33.160Z,98492.14
2018-10-15T09:45:01.445Z,98487.45
2018-10-15T09:47:29.816Z,98488.27
2018-10-15T09:49:58.232Z,98487.52
2018-10-15T09:52:26.368Z,98480.32
2018-10-15T09:54:54.782Z,98479.96
2018-10-15T09:57:23.545Z,98482.55
2018-10-15T09:59:51.775Z,98480.34
2018-10-15T10:02:19.996Z,98480.28
2018-10-15T10:04:48.203Z,98482.02
2018-10-15T10:07:16.413Z,98476.56
2018-10-15T10:09:44.492Z,98472.12
2018-10-15T10:12:12.744Z,98471.09
2018-10-15T10:14:41.319Z,98473.73
2018-10-15T10:17:09.514Z,98475.04
2018-10-15T10:19:37.892Z,98471.66
2018-10-15T10:22:06.228Z,98467.13
2018-10-15T10:24:34.590Z,98463.28
2018-10-15T10:27:02.927Z,98463.28
2018-10-15T10:29:31.063Z,98458.75
2018-10-15T10:31:59.406Z,98455.81
2018-10-15T10:36:05.589Z,98454.96
2018-10-15T10:38:38.480Z,98451.60
2018-10-15T10:41:06.801Z,98442.55
2018-10-15T10:43:35.140Z,98448.58
2018-10-15T10:46:03.921Z,98447.19
2018-10-15T10:48:32.398Z,98444.97
2018-10-15T10:51:00.797Z,98440.41
2018-10-15T10:53:29.542Z,98443.03
2018-10-15T10:55:57.844Z,98437.19
2018-10-15T10:58:26.381Z,98438.13
2018-10-15T11:00:54.605Z,98438.66
2018-10-15T11:03:23.037Z,98433.23
2018-10-15T11:05:51.694Z,98426.44
2018-10-15T11:08:20.521Z,98428.36
2018-10-15T11:10:48.936Z,98429.82
2018-10-15T11:13:17.339Z,98426.18
2018-10-15T11:15:45.815Z,98421.27
2018-10-15T11:18:14.118Z,98420.39
2018-10-15T11:20:42.532Z,98420.28
2018-10-15T11:23:10.968Z,98410.61
2018-10-15T11:25:39.200Z,98410.64
2018-10-15T11:28:07.392Z,98416.84
2018-10-15T11:30:35.726Z,98410.74
2018-10-15T11:33:03.992Z,98409.03
2018-10-15T11:35:32.434Z,98413.81
2018-10-15T11:38:00.889Z,98405.43
2018-10-15T11:40:29.188Z,98402.42
2018-10-15T11:42:57.725Z,98406.66
2018-10-15T11:45:26.119Z,98408.89
2018-10-15T11:47:54.244Z,98405.33
2018-10-15T11:50:22.632Z,98406.67
2018-10-15T11:52:51.102Z,98404.28
2018-10-15T11:55:19.500Z,98396.20
2018-10-15T11:57:47.892Z,98393.37
2018-10-15T12:00:17.051Z,98386.28
2018-10-15T12:02:46.565Z,98387.56
2018-10-15T12:05:14.796Z,98390.84
2018-10-15T12:07:43.025Z,98385.20
2018-10-15T12:10:12.644Z,98385.54
2018-10-15T12:12:41.145Z,98380.91
2018-10-15T12:15:10.673Z,98381.41
2018-10-15T12:17:39.672Z,98378.52
2018-10-15T12:20:09.172Z,98380.78
2018-10-15T12:22:37.718Z,98379.34
2018-10-15T12:25:07.358Z,98376.89
2018-10-15T12:27:35.961Z,98371.36
2018-10-15T12:30:04.380Z,98372.40
2018-10-15T12:32:32.771Z,98369.33
2018-10-15T12:35:01.031Z,98369.30
2018-10-15T12:37:29.397Z,98363.77
2018-10-15T12:39:57.849Z,98363.38
2018-10-15T12:42:26.255Z,98363.91
2018-10-15T12:44:54.759Z,98360.28
2018-10-15T12:47:23.343Z,98354.86
2018-10-15T12:49:51.755Z,98354.13
2018-10-15T12:52:20.222Z,98352.89
2018-10-15T12:54:48.680Z,98352.36
2018-10-15T12:57:17.220Z,98349.17
2018-10-15T12:59:45.546Z,98354.13
2018-10-15T13:02:13.819Z,98356.18
2018-10-15T13:04:42.391Z,98358.23
2018-10-15T13:07:10.773Z,98354.73
2018-10-15T13:09:39.255Z,98356.69
2018-10-15T13:12:07.656Z,98350.52
2018-10-15T13:14:36.124Z,98350.58
2018-10-15T13:17:04.668Z,98353.98
2018-10-15T13:19:33.688Z,98355.43
2018-10-15T13:22:02.194Z,98344.39
2018-10-15T13:24:30.578Z,98343.66
2018-10-15T13:26:58.723Z,98342.03
2018-10-15T13:29:26.950Z,98343.52
2018-10-15T13:31:55.490Z,98336.36
2018-10-15T13:34:24.012Z,98339.67
2018-10-15T13:36:52.387Z,98343.88
2018-10-15T13:39:20.815Z,98340.30
2018-10-15T13:41:49.242Z,98339.78
2018-10-15T13:44:17.497Z,98339.13
2018-10-15T13:46:45.772Z,98343.58
2018-10-15T13:49:13.961Z,98343.58
2018-10-15T13:51:42.397Z,98341.86
2018-10-15T13:54:10.728Z,98348.45
2018-10-15T13:56:39.048Z,98346.65
2018-10-15T13:59:07.435Z,98349.72
2018-10-15T14:01:35.804Z,98345.87
2018-10-15T14:04:05.458Z,98346.30
2018-10-15T14:06:34.549Z,98350.01
2018-10-15T14:09:03.044Z,98350.13
2018-10-15T14:11:31.424Z,98346.94
2018-10-15T14:13:59.579Z,98346.42
2018-10-15T14:16:28.084Z,98353.53
2018-10-15T14:18:56.312Z,98351.05
2018-10-15T14:21:24.896Z,98350.01
2018-10-15T14:23:53.191Z,98356.22
2018-10-15T14:26:21.379Z,98345.47
2018-10-15T14:28:50.076Z,98349.67
2018-10-15T14:31:18.518Z,98345.37
2018-10-15T14:33:46.951Z,98348.44
2018-10-15T14:36:15.239Z,98340.05
2018-10-15T14:38:43.651Z,98344.07
2018-10-15T14:41:11.861Z,98340.39
2018-10-15T14:43:40.313Z,98339.37
2018-10-15T14:46:08.727Z,98340.22
2018-10-15T14:48:37.160Z,98336.70
2018-10-15T14:51:06.872Z,98347.55
2018-10-15T14:53:36.214Z,98342.30
2018-10-15T14:56:04.722Z,98339.05
2018-10-15T14:58:33.109Z,98344.48
2018-10-15T15:01:01.581Z,98339.06
2018-10-15T15:03:29.891Z,98336.89
2018-10-15T15:05:58.244Z,98338.34
2018-10-15T15:08:26.660Z,98340.18
2018-10-15T15:11:06.446Z,98338.33
2018-10-15T15:13:45.965Z,98337.50
2018-10-15T15:16:14.091Z,98338.95
2018-10-15T15:18:42.354Z,98346.49
2018-10-15T15:21:10.502Z,98338.88
2018-10-15T15:23:38.906Z,98343.92
2018-10-15T15:26:07.277Z,98342.61
2018-10-15T15:28:35.543Z,98340.26
2018-10-15T15:31:03.927Z,98342.72
2018-10-15T15:33:32.660Z,98347.47
2018-10-15T15:36:01.015Z,98339.86
2018-10-15T15:38:29.274Z,98348.44
2018-10-15T15:40:58.100Z,98353.72
2018-10-15T15:43:26.492Z,98349.80
2018-10-15T15:45:54.836Z,98347.94
2018-10-15T15:48:23.003Z,98352.17
2018-10-15T15:50:51.354Z,98358.16
2018-10-15T15:53:19.543Z,98354.13
2018-10-15T15:55:47.964Z,98358.02
2018-10-15T15:58:16.408Z,98361.51
2018-10-15T16:00:44.786Z,98362.03
2018-10-15T16:03:13.304Z,98360.78
2018-10-15T16:05:41.819Z,98359.86
2018-10-15T16:08:10.277Z,98362.84
2018-10-15T16:10:38.707Z,98367.58
2018-10-15T16:13:06.997Z,98366.52
2018-10-15T16:15:35.326Z,98374.63
2018-10-15T16:18:03.660Z,98379.59
2018-10-15T16:20:31.928Z,98381.28
2018-10-15T16:23:00.211Z,98381.29
2018-10-15T16:25:28.685Z,98386.25
2018-10-15T16:27:57.103Z,98392.73
2018-10-15T16:30:25.411Z,98398.82
2018-10-15T16:32:53.811Z,98398.80
2018-10-15T16:35:21.956Z,98399.80
2018-10-15T16:37:50.420Z,98401.59
2018-10-15T16:40:18.764Z,98407.59
2018-10-15T16:42:47.518Z,98411.72
2018-10-15T16:45:16.010Z,98415.41
2018-10-15T16:47:44.474Z,98421.66
2018-10-15T16:50:14.421Z,98415.72
2018-10-15T16:52:49.149Z,98417.49
2018-10-15T16:55:17.304Z,98423.50
2018-10-15T16:57:46.023Z,98427.36
2018-10-15T17:00:14.936Z,98433.21
2018-10-15T17:02:43.460Z,98431.52
2018-10-15T17:05:13.058Z,98431.69
2018-10-15T17:07:41.552Z,98438.80
2018-10-15T17:10:12.096Z,98437.20
2018-10-15T17:12:40.793Z,98438.07
2018-10-15T17:15:11.640Z,98440.55
2018-10-15T17:17:40.667Z,98445.05
2018-10-15T17:20:09.646Z,98446.08
2018-10-15T17:22:37.868Z,98445.27
2018-10-15T17:25:06.599Z,98451.13
2018-10-15T17:27:34.864Z,98445.81
2018-10-15T17:30:03.202Z,98442.80
2018-10-15T17:32:31.520Z,98447.05
2018-10-15T17:34:59.724Z,98456.56
2018-10-15T17:37:28.058Z,98454.77
2018-10-15T17:39:56.454Z,98456.70
2018-10-15T17:42:24.963Z,98454.57
2018-10-15T17:44:53.447Z,98457.44
2018-10-15T17:47:21.817Z,98463.47
2018-10-15T17:49:50.233Z,98468.30
2018-10-15T17:52:18.781Z,98461.48
2018-10-15T17:54:47.064Z,98471.16
2018-10-15T17:57:15.492Z,98475.48
2018-10-15T17:59:43.751Z,98472.02
2018-10-15T18:02:12.547Z,98480.84
2018-10-15T18:04:40.969Z,98483.18
2018-10-15T18:07:09.357Z,98483.33
2018-10-15T18:09:37.758Z,98489.63
2018-10-15T18:12:06.381Z,98488.95
2018-10-15T18:14:34.676Z,98490.45
2018-10-15T18:17:03.154Z,98490.44
2018-10-15T18:19:31.501Z,98494.03
2018-10-15T18:21:59.877Z,98491.32
2018-10-15T18:24:28.160Z,98496.94
2018-10-15T18:26:56.360Z,98493.46
2018-10-15T18:29:24.676Z,98498.89
2018-10-15T18:31:52.890Z,98498.52
2018-10-15T18:34:21.127Z,98501.43
2018-10-15T18:36:49.559Z,98501.75
2018-10-15T18:39:17.792Z,98504.92
2018-10-15T18:41:46.190Z,98505.86
2018-10-15T18:44:14.301Z,98508.81
2018-10-15T18:46:42.549Z,98498.66
2018-10-15T18:49:11.087Z,98510.54
2018-10-15T18:51:39.367Z,98509.67
2018-10-15T18:54:07.968Z,98512.34
2018-10-15T18:56:36.219Z,98515.16
2018-10-15T18:59:04.399Z,98506.02
2018-10-15T19:01:32.524Z,98508.86
2018-10-15T19:04:00.653Z,98515.45
2018-10-15T19:06:28.821Z,98524.14
2018-10-15T19:08:57.015Z,98516.06
2018-10-15T19:11:25.165Z,98525.19
2018-10-15T19:13:53.479Z,98523.82
2018-10-15T19:16:21.714Z,98522.54
2018-10-15T19:18:49.999Z,98527.58
2018-10-15T19:21:18.153Z,98527.64
2018-10-15T19:23:46.288Z,98527.55
2018-10-15T19:26:14.507Z,98530.08
2018-10-15T19:28:42.566Z,98532.19
2018-10-15T19:31:10.791Z,98538.67
2018-10-15T19:33:39.067Z,98541.95
2018-10-15T19:36:07.594Z,98543.81
2018-10-15T19:38:35.810Z,98542.91
2018-10-15T19:41:04.270Z,98551.08
2018-10-15T19:43:32.576Z,98552.80
2018-10-15T19:46:00.751Z,98554.08
2018-10-15T19:48:28.894Z,98553.78
2018-10-15T19:50:57.139Z,98562.15
2018-10-15T19:53:25.411Z,98564.66
2018-10-15T19:55:53.546Z,98559.01
2018-10-15T19:58:21.969Z,98561.04
2018-10-15T20:00:50.131Z,98569.16
2018-10-15T20:03:18.440Z,98578.19
2018-10-15T20:05:47.368Z,98568.87
2018-10-15T20:08:15.528Z,98574.52
2018-10-15T20:10:43.828Z,98574.85
2018-10-15T20:13:12.108Z,98579.73
2018-10-15T20:15:40.362Z,98580.65
2018-10-15T20:18:08.656Z,98582.81
2018-10-15T20:20:36.767Z,98580.17
2018-10-15T20:23:05.248Z,98588.23
2018-10-15T20:25:33.529Z,98583.06
2018-10-15T20:28:01.758Z,98586.47
2018-10-15T20:30:29.914Z,98582.19
2018-10-15T20:32:58.153Z,98582.04
2018-10-15T20:35:26.446Z,98583.14
2018-10-15T20:37:54.771Z,98585.08
2018-10-15T20:40:23.001Z,98591.25
2018-10-15T20:42:51.209Z,98591.25
2018-10-15T20:45:19.398Z,98591.53
2018-10-15T20:47:47.715Z,98594.79
2018-10-15T20:50:15.991Z,98592.30
2018-10-15T20:52:44.247Z,98595.36
2018-10-15T20:55:12.412Z,98595.17
2018-10-15T20:57:41.302Z,98593.15
2018-10-15T21:00:10.803Z,98592.84
2018-10-15T21:02:39.496Z,98593.10
2018-10-15T21:05:07.892Z,98602.80
2018-10-15T21:07:36.140Z,98600.61
2018-10-15T21:10:04.375Z,98597.98
2018-10-15T21:12:32.607Z,98598.87
2018-10-15T21:15:00.728Z,98600.86
2018-10-15T21:17:28.981Z,98601.48
2018-10-15T21:19:57.278Z,98606.99
2018-10-15T21:22:25.561Z,98604.92
2018-10-15T21:24:53.759Z,98607.09
2018-10-15T21:27:21.904Z,98610.81
2018-10-15T21:29:51.029Z,98606.30
2018-10-15T21:32:19.255Z,98611.05
2018-10-15T21:34:47.599Z,98609.95
2018-10-15T21:37:15.779Z,98610.66
2018-10-15T21:39:44.076Z,98609.03
2018-10-15T21:42:12.352Z,98610.66
2018-10-15T21:44:47.384Z,98619.08
2018-10-15T21:47:15.704Z,98619.03
2018-10-15T21:49:44.107Z,98608.94
2018-10-15T21:52:12.482Z,98614.84
2018-10-15T21:54:40.889Z,98615.92
2018-10-15T21:57:09.172Z,98615.22
2018-10-15T22:02:37.808Z,98624.38
2018-10-15T22:05:06.720Z,98626.06
2018-10-15T22:07:34.820Z,98627.32
2018-10-15T22:10:08.460Z,98630.19
2018-10-15T22:12:36.994Z,98626.85
2018-10-15T22:15:06.229Z,98623.45
2018-10-15T22:17:34.392Z,98628.84
2018-10-15T22:20:02.700Z,98623.25
2018-10-15T22:22:30.979Z,98626.48
2018-10-15T22:24:59.308Z,98627.83
2018-10-15T22:27:27.548Z,98627.46
2018-10-15T22:29:55.760Z,98629.52
2018-10-15T22:32:24.377Z,98624.05
2018-10-15T22:34:52.540Z,98627.16
2018-10-15T22:37:20.695Z,98629.47
2018-10-15T22:39:48.896Z,98634.94
2018-10-15T22:42:17.058Z,98631.28
2018-10-15T22:44:45.244Z,98643.64
2018-10-15T22:47:13.490Z,98640.40
2018-10-15T22:49:41.635Z,98643.77
2018-10-15T22:52:09.991Z,98641.16
2018-10-15T22:54:38.478Z,98645.47
2018-10-15T22:57:06.744Z,98641.28
2018-10-15T22:59:35.049Z,98640.23
2018-10-15T23:02:03.404Z,98645.94
2018-10-15T23:04:31.559Z,98642.20
2018-10-15T23:06:59.687Z,98644.75
2018-10-15T23:09:28.501Z,98643.44
2018-10-15T23:11:56.632Z,98651.33
2018-10-15T23:14:25.245Z,98650.32
2018-10-15T23:16:53.479Z,98645.61
2018-10-15T23:19:21.653Z,98655.60
2018-10-15T23:21:49.859Z,98649.62
2018-10-15T23:24:18.055Z,98655.37
2018-10-15T23:26:46.261Z,98656.56
2018-10-15T23:29:14.430Z,98653.47
2018-10-15T23:31:42.785Z,98648.41
2018-10-15T23:34:10.928Z,98657.63
2018-10-15T23:36:39.078Z,98666.10
2018-10-15T23:39:09.496Z,98665.86
2018-10-15T23:41:37.646Z,98676.61
2018-10-15T23:44:05.879Z,98669.28
2018-10-15T23:46:34.112Z,98668.81
2018-10-15T23:49:02.286Z,98675.73
2018-10-15T23:51:30.452Z,98680.41
2018-10-15T23:53:58.608Z,98681.02
2018-10-15T23:56:26.936Z,98682.93
2018-10-15T23:58:55.385Z,98683.56
